Time;durP1;ratioP1;P1;durP2;ratioP2;P2;SDS_P1;SDS_P2;PMS_P1;PMS_P2;Temp;Humidity;BMP_temperature;BMP_pressure;BME280_temperature;BME280_humidity;BME280_pressure;Samples;Min_cycle;Max_cycle;Signal;HPM_P1;HPM_P2
2023/08/26 00:00:35;;;;;;;5.20;2.47;;;;;;;;;;5040177;28;20388;-70
2023/08/26 00:03:01;;;;;;;5.15;2.47;;;;;;;;;;5061753;28;20105;-70
2023/08/26 00:05:27;;;;;;;4.65;3.15;;;;;;;;;;5063067;28;20143;-70
2023/08/26 00:07:54;;;;;;;4.97;2.60;;;;;;;;;;5061955;28;20032;-69
2023/08/26 00:10:20;;;;;;;6.50;2.42;;;;;;;;;;5060590;28;20027;-69
2023/08/26 00:12:46;;;;;;;5.15;2.60;;;;;;;;;;5059306;28;20043;-70
2023/08/26 00:15:12;;;;;;;7.30;2.58;;;;;;;;;;5061277;28;20106;-70
2023/08/26 00:17:38;;;;;;;5.97;3.42;;;;;;;;;;5069778;28;20059;-70
2023/08/26 00:20:09;;;;;;;4.68;2.40;;;;;;;;;;5062869;28;20036;-70
2023/08/26 00:22:36;;;;;;;4.03;2.30;;;;;;;;;;5062441;28;20052;-69
2023/08/26 00:25:02;;;;;;;7.10;2.70;;;;;;;;;;5068840;28;20032;-70
2023/08/26 00:27:29;;;;;;;3.55;1.90;;;;;;;;;;5064556;28;20118;-70
2023/08/26 00:29:55;;;;;;;6.15;2.33;;;;;;;;;;5066352;28;20500;-70
2023/08/26 00:32:21;;;;;;;5.75;2.42;;;;;;;;;;5061713;28;20032;-70
2023/08/26 00:34:47;;;;;;;5.38;2.45;;;;;;;;;;5065805;28;20104;-70
2023/08/26 00:37:14;;;;;;;3.20;2.00;;;;;;;;;;5062083;28;20036;-70
2023/08/26 00:39:40;;;;;;;8.23;2.30;;;;;;;;;;5057712;28;20028;-70
2023/08/26 00:42:06;;;;;;;4.57;2.72;;;;;;;;;;5078550;28;20026;-70
2023/08/26 00:44:32;;;;;;;7.25;2.78;;;;;;;;;;5080243;28;20024;-70
2023/08/26 00:46:59;;;;;;;5.00;2.65;;;;;;;;;;5081042;28;20024;-70
2023/08/26 00:49:25;;;;;;;6.03;2.50;;;;;;;;;;5080381;28;20027;-70
2023/08/26 00:51:51;;;;;;;6.90;2.85;;;;;;;;;;5080611;28;20458;-70
2023/08/26 00:54:18;;;;;;;5.35;2.40;;;;;;;;;;5081735;28;20035;-70
2023/08/26 00:56:44;;;;;;;3.42;2.85;;;;;;;;;;5073271;28;20028;-69
2023/08/26 00:59:10;;;;;;;5.38;2.53;;;;;;;;;;5077801;28;20031;-69
2023/08/26 01:01:37;;;;;;;7.10;2.67;;;;;;;;;;5080667;28;20519;-68
2023/08/26 01:04:04;;;;;;;5.55;2.80;;;;;;;;;;5076747;28;20097;-70
2023/08/26 01:06:30;;;;;;;3.20;2.55;;;;;;;;;;5080782;28;20024;-69
2023/08/26 01:08:56;;;;;;;4.22;2.80;;;;;;;;;;5085546;28;20380;-70
2023/08/26 01:11:25;;;;;;;5.07;3.03;;;;;;;;;;5081297;28;20032;-69
2023/08/26 01:14:06;;;;;;;8.93;2.72;;;;;;;;;;5060061;28;20089;-69
2023/08/26 01:16:34;;;;;;;3.72;2.83;;;;;;;;;;5081997;28;20024;-69
2023/08/26 01:19:02;;;;;;;5.85;2.50;;;;;;;;;;5080394;28;20492;-69
2023/08/26 01:21:34;;;;;;;5.00;2.45;;;;;;;;;;5081529;28;20063;-69
2023/08/26 01:24:00;;;;;;;6.15;2.78;;;;;;;;;;5078490;28;20048;-69
2023/08/26 01:26:26;;;;;;;6.65;2.60;;;;;;;;;;5080481;28;20418;-69
2023/08/26 01:28:52;;;;;;;3.72;2.67;;;;;;;;;;5080846;28;20384;-72
2023/08/26 01:31:19;;;;;;;6.53;3.22;;;;;;;;;;5060976;28;20552;-69
2023/08/26 01:33:50;;;;;;;5.25;2.88;;;;;;;;;;5079580;28;20031;-69
2023/08/26 01:36:20;;;;;;;4.88;2.75;;;;;;;;;;5072874;28;20036;-69
2023/08/26 01:38:46;;;;;;;5.57;2.88;;;;;;;;;;5055304;28;20025;-69
2023/08/26 01:41:15;;;;;;;6.70;2.60;;;;;;;;;;5052732;28;20414;-69
2023/08/26 01:43:42;;;;;;;4.18;2.35;;;;;;;;;;5062203;28;20381;-70
2023/08/26 01:46:08;;;;;;;9.00;2.75;;;;;;;;;;5056114;28;20083;-69
2023/08/26 01:48:34;;;;;;;5.35;2.78;;;;;;;;;;5059842;28;20020;-69
2023/08/26 01:51:00;;;;;;;5.80;3.08;;;;;;;;;;5062960;28;20118;-69
2023/08/26 01:53:27;;;;;;;3.22;2.50;;;;;;;;;;5061587;28;20033;-69
2023/08/26 01:55:53;;;;;;;8.05;2.85;;;;;;;;;;5057254;28;20044;-70
2023/08/26 01:58:19;;;;;;;6.85;3.20;;;;;;;;;;5062975;28;20440;-69
2023/08/26 02:00:45;;;;;;;7.95;2.92;;;;;;;;;;5054711;28;20085;-71
2023/08/26 02:03:11;;;;;;;4.82;2.75;;;;;;;;;;5063678;28;20286;-70
2023/08/26 02:05:37;;;;;;;6.28;2.78;;;;;;;;;;5073093;28;20043;-71
2023/08/26 02:08:04;;;;;;;7.05;2.70;;;;;;;;;;5065134;28;20027;-69
2023/08/26 02:10:30;;;;;;;6.65;2.80;;;;;;;;;;5061783;28;20025;-70
2023/08/26 02:12:56;;;;;;;5.47;2.45;;;;;;;;;;5061699;28;20430;-69
2023/08/26 02:15:22;;;;;;;4.82;2.90;;;;;;;;;;5061716;28;20032;-70
2023/08/26 02:17:48;;;;;;;7.35;3.03;;;;;;;;;;5064592;28;20043;-70
2023/08/26 02:20:14;;;;;;;7.93;2.80;;;;;;;;;;5055165;28;20027;-69
2023/08/26 02:22:40;;;;;;;7.30;3.28;;;;;;;;;;5061410;28;20036;-69
2023/08/26 02:25:07;;;;;;;5.20;2.97;;;;;;;;;;5065152;28;20039;-71
2023/08/26 02:27:34;;;;;;;5.00;3.05;;;;;;;;;;5066360;28;20031;-70
2023/08/26 02:30:00;;;;;;;5.22;3.15;;;;;;;;;;5065352;28;20029;-69
2023/08/26 02:32:26;;;;;;;6.45;3.65;;;;;;;;;;5060168;28;20033;-72
2023/08/26 02:34:52;;;;;;;8.85;3.35;;;;;;;;;;5059159;28;20445;-70
2023/08/26 02:37:18;;;;;;;4.53;2.67;;;;;;;;;;5081342;28;20234;-70
2023/08/26 02:39:45;;;;;;;7.90;3.10;;;;;;;;;;5079629;28;20036;-70
2023/08/26 02:42:11;;;;;;;7.28;2.90;;;;;;;;;;5078812;28;20028;-70
2023/08/26 02:44:38;;;;;;;6.28;2.70;;;;;;;;;;5075943;28;20539;-70
2023/08/26 02:47:04;;;;;;;5.28;3.22;;;;;;;;;;5073714;28;20040;-70
2023/08/26 02:49:30;;;;;;;3.72;2.47;;;;;;;;;;5069060;28;20499;-70
2023/08/26 02:51:56;;;;;;;5.40;2.95;;;;;;;;;;5067927;28;20520;-69
2023/08/26 02:54:22;;;;;;;4.20;2.53;;;;;;;;;;5078894;28;20046;-71
2023/08/26 02:56:48;;;;;;;3.60;2.30;;;;;;;;;;5083647;28;20037;-70
2023/08/26 02:59:15;;;;;;;5.28;2.63;;;;;;;;;;5081304;28;20031;-69
2023/08/26 03:01:41;;;;;;;5.80;2.72;;;;;;;;;;5085188;28;20028;-72
2023/08/26 03:04:07;;;;;;;4.10;2.40;;;;;;;;;;5082989;28;20552;-69
2023/08/26 03:06:33;;;;;;;5.30;2.72;;;;;;;;;;5085295;28;20372;-70
2023/08/26 03:08:59;;;;;;;5.38;2.72;;;;;;;;;;5080779;28;20020;-70
2023/08/26 03:11:25;;;;;;;8.95;3.50;;;;;;;;;;5076958;28;20028;-70
2023/08/26 03:13:52;;;;;;;5.75;2.60;;;;;;;;;;5075564;28;20472;-71
2023/08/26 03:16:18;;;;;;;5.18;2.45;;;;;;;;;;5074515;28;20031;-70
2023/08/26 03:18:44;;;;;;;5.25;2.88;;;;;;;;;;5075575;28;20471;-70
2023/08/26 03:21:10;;;;;;;4.03;2.60;;;;;;;;;;5079073;28;20499;-70
2023/08/26 03:23:36;;;;;;;3.40;2.45;;;;;;;;;;5086442;28;20024;-70
2023/08/26 03:26:03;;;;;;;4.03;2.25;;;;;;;;;;5079211;28;20669;-70
2023/08/26 03:28:29;;;;;;;3.22;2.13;;;;;;;;;;5075809;28;20043;-70
2023/08/26 03:31:02;;;;;;;3.58;2.10;;;;;;;;;;5071633;28;20430;-70
2023/08/26 03:33:28;;;;;;;4.53;3.33;;;;;;;;;;5082102;28;20071;-70
2023/08/26 03:35:56;;;;;;;4.65;2.63;;;;;;;;;;5084162;28;20040;-70
2023/08/26 03:38:23;;;;;;;5.03;2.50;;;;;;;;;;5081854;28;20420;-70
2023/08/26 03:40:49;;;;;;;5.45;2.40;;;;;;;;;;5080118;28;20368;-70
2023/08/26 03:43:15;;;;;;;7.53;2.47;;;;;;;;;;5075804;28;20036;-70
2023/08/26 03:45:41;;;;;;;5.93;2.60;;;;;;;;;;5078971;28;20028;-70
2023/08/26 03:48:07;;;;;;;4.13;2.42;;;;;;;;;;5075218;28;20640;-70
2023/08/26 03:50:33;;;;;;;6.22;2.42;;;;;;;;;;5080731;28;20024;-69
2023/08/26 03:52:59;;;;;;;7.22;2.50;;;;;;;;;;5067639;28;20031;-69
2023/08/26 03:55:25;;;;;;;3.65;2.40;;;;;;;;;;5075918;28;20491;-69
2023/08/26 03:57:52;;;;;;;5.30;2.65;;;;;;;;;;5081817;28;20032;-70
2023/08/26 04:00:18;;;;;;;3.67;2.28;;;;;;;;;;5061635;28;20032;-69
2023/08/26 04:02:45;;;;;;;5.30;2.33;;;;;;;;;;5082021;28;20446;-69
2023/08/26 04:05:13;;;;;;;6.90;2.35;;;;;;;;;;5081781;28;20106;-69
2023/08/26 04:07:39;;;;;;;6.93;2.88;;;;;;;;;;5064325;28;20313;-69
2023/08/26 04:10:06;;;;;;;4.38;2.10;;;;;;;;;;5072173;28;20031;-69
2023/08/26 04:12:32;;;;;;;7.07;2.05;;;;;;;;;;5078768;28;20451;-70
2023/08/26 04:14:59;;;;;;;8.02;2.40;;;;;;;;;;5072265;28;20028;-70
2023/08/26 04:17:25;;;;;;;5.47;2.45;;;;;;;;;;5078459;28;20033;-69
2023/08/26 04:19:51;;;;;;;2.15;1.92;;;;;;;;;;5080307;28;20567;-69
2023/08/26 04:22:17;;;;;;;7.43;2.60;;;;;;;;;;5047492;28;20028;-69
2023/08/26 04:24:43;;;;;;;3.78;2.30;;;;;;;;;;5056571;28;20484;-69
2023/08/26 04:27:12;;;;;;;6.07;2.28;;;;;;;;;;5077640;28;20458;-70
2023/08/26 04:29:38;;;;;;;3.85;2.38;;;;;;;;;;5080092;28;20564;-69
2023/08/26 04:32:04;;;;;;;5.25;2.45;;;;;;;;;;5078677;28;20376;-69
2023/08/26 04:34:30;;;;;;;6.45;2.20;;;;;;;;;;5071084;28;20043;-69
2023/08/26 04:36:56;;;;;;;3.92;2.20;;;;;;;;;;5060698;28;20049;-69
2023/08/26 04:39:23;;;;;;;7.45;2.65;;;;;;;;;;5062510;28;20029;-69
2023/08/26 04:41:49;;;;;;;3.83;2.72;;;;;;;;;;5059458;28;20040;-69
2023/08/26 04:44:17;;;;;;;2.65;2.40;;;;;;;;;;5056074;28;20439;-69
2023/08/26 04:46:44;;;;;;;3.15;1.98;;;;;;;;;;5051495;28;20412;-69
2023/08/26 04:49:10;;;;;;;3.72;1.95;;;;;;;;;;5055073;28;20035;-69
2023/08/26 04:51:37;;;;;;;3.30;2.00;;;;;;;;;;5060662;28;20366;-69
2023/08/26 04:54:04;;;;;;;3.58;2.10;;;;;;;;;;5059713;28;20083;-69
2023/08/26 04:56:30;;;;;;;4.43;1.95;;;;;;;;;;5062264;28;20029;-70
2023/08/26 04:58:56;;;;;;;3.00;2.05;;;;;;;;;;5063082;28;20059;-69
2023/08/26 05:01:22;;;;;;;3.50;1.90;;;;;;;;;;5057533;28;20110;-69
2023/08/26 05:03:48;;;;;;;2.85;2.00;;;;;;;;;;5066996;28;20047;-69
2023/08/26 05:06:14;;;;;;;4.57;2.10;;;;;;;;;;5063341;28;20159;-69
2023/08/26 05:08:41;;;;;;;5.35;3.03;;;;;;;;;;5067333;28;20427;-70
2023/08/26 05:11:07;;;;;;;4.25;1.80;;;;;;;;;;5064219;28;20433;-70
2023/08/26 05:13:34;;;;;;;3.65;1.88;;;;;;;;;;5074701;28;20032;-69
2023/08/26 05:16:00;;;;;;;2.83;1.88;;;;;;;;;;5054950;28;20410;-69
2023/08/26 05:18:26;;;;;;;3.72;1.85;;;;;;;;;;5066650;28;20099;-70
2023/08/26 05:20:52;;;;;;;3.80;2.00;;;;;;;;;;5060877;28;20039;-70
2023/08/26 05:23:18;;;;;;;4.05;2.00;;;;;;;;;;5064844;28;20389;-70
2023/08/26 05:25:45;;;;;;;6.15;2.20;;;;;;;;;;5064785;28;20539;-69
2023/08/26 05:28:12;;;;;;;5.05;2.90;;;;;;;;;;5041439;28;20099;-70
2023/08/26 05:30:38;;;;;;;4.40;1.90;;;;;;;;;;5063826;28;20047;-69
2023/08/26 05:33:05;;;;;;;3.78;1.88;;;;;;;;;;5066368;28;20067;-69
2023/08/26 05:35:31;;;;;;;3.28;1.98;;;;;;;;;;5062890;28;20090;-69
2023/08/26 05:37:58;;;;;;;3.22;1.58;;;;;;;;;;5065165;28;20496;-69
2023/08/26 05:40:28;;;;;;;2.80;1.60;;;;;;;;;;5063885;28;20056;-69
2023/08/26 05:42:55;;;;;;;4.35;1.80;;;;;;;;;;5061965;28;20028;-69
2023/08/26 05:45:21;;;;;;;5.28;1.92;;;;;;;;;;5065272;28;20056;-70
2023/08/26 05:47:47;;;;;;;6.72;2.10;;;;;;;;;;5064715;28;20102;-69
2023/08/26 05:50:14;;;;;;;4.82;1.95;;;;;;;;;;5065784;28;20032;-69
2023/08/26 05:52:40;;;;;;;4.35;1.70;;;;;;;;;;5080006;28;20064;-69
2023/08/26 05:55:06;;;;;;;6.78;2.13;;;;;;;;;;5063455;28;20028;-69
2023/08/26 05:57:33;;;;;;;4.10;1.90;;;;;;;;;;5064874;28;20115;-69
2023/08/26 05:59:59;;;;;;;3.35;1.70;;;;;;;;;;5066298;28;20025;-70
2023/08/26 06:02:25;;;;;;;3.75;2.08;;;;;;;;;;5059552;28;20441;-69
2023/08/26 06:04:52;;;;;;;3.20;1.92;;;;;;;;;;5064516;28;20021;-69
2023/08/26 06:07:18;;;;;;;4.05;1.88;;;;;;;;;;5051223;28;20106;-69
2023/08/26 06:09:45;;;;;;;3.20;1.65;;;;;;;;;;5069716;28;20051;-69
2023/08/26 06:12:12;;;;;;;4.07;2.53;;;;;;;;;;5044083;28;20075;-69
2023/08/26 06:14:38;;;;;;;3.58;1.92;;;;;;;;;;5063808;28;20551;-69
2023/08/26 06:17:05;;;;;;;4.60;2.30;;;;;;;;;;5066885;28;20068;-69
2023/08/26 06:19:32;;;;;;;3.60;1.90;;;;;;;;;;5049016;28;20555;-69
2023/08/26 06:21:58;;;;;;;4.20;1.95;;;;;;;;;;5065092;28;20062;-70
2023/08/26 06:24:26;;;;;;;4.75;2.00;;;;;;;;;;5065529;28;20024;-69
2023/08/26 06:26:52;;;;;;;3.05;2.00;;;;;;;;;;5065015;28;20048;-69
2023/08/26 06:29:23;;;;;;;2.67;1.85;;;;;;;;;;5064650;28;20024;-69
2023/08/26 06:31:49;;;;;;;3.33;1.65;;;;;;;;;;5067536;28;20036;-69
2023/08/26 06:34:16;;;;;;;6.40;1.98;;;;;;;;;;5070638;28;20374;-70
2023/08/26 06:36:44;;;;;;;4.25;1.90;;;;;;;;;;5086017;28;20164;-68
2023/08/26 06:39:15;;;;;;;4.90;1.95;;;;;;;;;;5088381;28;20123;-69
2023/08/26 06:41:41;;;;;;;5.93;2.08;;;;;;;;;;5060442;28;20535;-68
2023/08/26 06:44:09;;;;;;;5.65;1.95;;;;;;;;;;5079317;28;20056;-70
2023/08/26 06:46:40;;;;;;;2.72;1.85;;;;;;;;;;5077398;28;20024;-69
2023/08/26 06:49:08;;;;;;;3.97;1.90;;;;;;;;;;5084402;28;20096;-69
2023/08/26 06:51:43;;;;;;;2.63;1.90;;;;;;;;;;5069242;28;20125;-69
2023/08/26 06:54:15;;;;;;;2.47;1.80;;;;;;;;;;5092138;28;20209;-68
2023/08/26 06:56:46;;;;;;;4.22;1.92;;;;;;;;;;5065283;28;20547;-69
2023/08/26 06:59:12;;;;;;;2.67;1.90;;;;;;;;;;5084667;28;20031;-69
2023/08/26 07:01:39;;;;;;;18.45;2.72;;;;;;;;;;5067586;28;20055;-70
2023/08/26 07:04:06;;;;;;;8.48;2.65;;;;;;;;;;5077549;28;20016;-69
2023/08/26 07:06:32;;;;;;;2.55;1.80;;;;;;;;;;5087070;28;20395;-70
2023/08/26 07:08:58;;;;;;;4.95;1.90;;;;;;;;;;5097656;28;20527;-69
2023/08/26 07:11:24;;;;;;;1.90;1.60;;;;;;;;;;5080178;28;20502;-69
2023/08/26 07:13:50;;;;;;;2.80;1.77;;;;;;;;;;5070999;28;20442;-70
2023/08/26 07:16:16;;;;;;;2.50;1.83;;;;;;;;;;5060936;28;20554;-69
2023/08/26 07:18:43;;;;;;;5.75;2.15;;;;;;;;;;5082181;28;20047;-69
2023/08/26 07:21:09;;;;;;;6.05;2.42;;;;;;;;;;5087421;28;20361;-70
2023/08/26 07:23:35;;;;;;;5.75;2.30;;;;;;;;;;5079131;28;20024;-69
2023/08/26 07:26:02;;;;;;;9.15;2.67;;;;;;;;;;5086898;28;20412;-69
2023/08/26 07:28:29;;;;;;;4.00;1.95;;;;;;;;;;5082017;28;20024;-69
2023/08/26 07:31:01;;;;;;;6.90;2.17;;;;;;;;;;5075845;28;20028;-69
2023/08/26 07:33:27;;;;;;;8.98;2.42;;;;;;;;;;5080551;28;20526;-69
2023/08/26 07:36:01;;;;;;;5.95;2.42;;;;;;;;;;5081322;28;20504;-69
2023/08/26 07:38:27;;;;;;;4.07;2.90;;;;;;;;;;5060218;28;20047;-69
2023/08/26 07:40:53;;;;;;;4.72;2.00;;;;;;;;;;5061701;28;20033;-69
2023/08/26 07:43:19;;;;;;;3.55;2.13;;;;;;;;;;5064862;28;20113;-69
2023/08/26 07:45:45;;;;;;;5.25;1.90;;;;;;;;;;5068151;28;20017;-69
2023/08/26 07:48:11;;;;;;;3.15;1.95;;;;;;;;;;5060351;28;20113;-69
2023/08/26 07:50:38;;;;;;;2.38;2.17;;;;;;;;;;5058045;28;20029;-69
2023/08/26 07:53:05;;;;;;;4.75;2.10;;;;;;;;;;5061425;28;20051;-69
2023/08/26 07:55:32;;;;;;;6.30;2.60;;;;;;;;;;5057739;28;20150;-69
2023/08/26 07:57:58;;;;;;;4.55;2.40;;;;;;;;;;5063433;28;20025;-70
2023/08/26 08:00:24;;;;;;;5.53;2.30;;;;;;;;;;5065269;28;20025;-68
2023/08/26 08:02:50;;;;;;;8.63;2.10;;;;;;;;;;5067684;28;20542;-68
2023/08/26 08:05:17;;;;;;;4.30;1.63;;;;;;;;;;5059502;28;20039;-68
2023/08/26 08:07:43;;;;;;;6.75;2.50;;;;;;;;;;5045749;28;20032;-68
2023/08/26 08:10:09;;;;;;;5.05;2.40;;;;;;;;;;5063024;28;20040;-69
2023/08/26 08:12:35;;;;;;;3.95;2.15;;;;;;;;;;5056093;28;20025;-68
2023/08/26 08:15:03;;;;;;;3.78;2.20;;;;;;;;;;5065306;28;20025;-68
2023/08/26 08:17:29;;;;;;;4.30;2.10;;;;;;;;;;5060356;28;20177;-68
2023/08/26 08:19:56;;;;;;;5.18;2.83;;;;;;;;;;5063465;28;20051;-69
2023/08/26 08:22:35;;;;;;;5.03;2.47;;;;;;;;;;5055864;28;20025;-68
2023/08/26 08:25:01;;;;;;;8.48;2.30;;;;;;;;;;5062821;28;20028;-68
2023/08/26 08:27:27;;;;;;;6.03;2.15;;;;;;;;;;5066713;28;20024;-68
2023/08/26 08:29:53;;;;;;;5.63;2.00;;;;;;;;;;5059258;28;20024;-68
2023/08/26 08:32:20;;;;;;;3.83;2.20;;;;;;;;;;5065327;28;20138;-69
2023/08/26 08:34:46;;;;;;;4.78;2.20;;;;;;;;;;5063549;28;20046;-68
2023/08/26 08:37:12;;;;;;;5.60;2.90;;;;;;;;;;5063711;28;20579;-68
2023/08/26 08:39:38;;;;;;;7.60;1.98;;;;;;;;;;5086227;28;20055;-68
2023/08/26 08:42:04;;;;;;;3.10;1.90;;;;;;;;;;5084127;28;20047;-68
2023/08/26 08:44:34;;;;;;;3.78;2.00;;;;;;;;;;5068628;28;20024;-68
2023/08/26 08:47:04;;;;;;;4.97;1.85;;;;;;;;;;5087706;28;20028;-68
2023/08/26 08:49:31;;;;;;;2.88;1.90;;;;;;;;;;5085522;28;20043;-68
2023/08/26 08:51:58;;;;;;;7.72;1.98;;;;;;;;;;5087871;28;20150;-68
2023/08/26 08:54:26;;;;;;;5.20;1.85;;;;;;;;;;5087027;28;20024;-69
2023/08/26 08:56:52;;;;;;;3.30;2.20;;;;;;;;;;5086126;28;20024;-68
2023/08/26 08:59:19;;;;;;;3.38;1.98;;;;;;;;;;5084693;28;20066;-68
2023/08/26 09:01:46;;;;;;;7.88;3.08;;;;;;;;;;5085473;28;20535;-68
2023/08/26 09:04:12;;;;;;;5.20;2.38;;;;;;;;;;5089543;28;20103;-67
2023/08/26 09:06:38;;;;;;;2.42;2.08;;;;;;;;;;5090207;28;20387;-68
2023/08/26 09:09:10;;;;;;;5.53;1.70;;;;;;;;;;5085466;28;20135;-68
2023/08/26 09:11:40;;;;;;;7.32;2.10;;;;;;;;;;5081042;28;20387;-68
2023/08/26 09:14:06;;;;;;;2.78;1.80;;;;;;;;;;5083294;28;20035;-68
2023/08/26 09:16:36;;;;;;;3.55;2.10;;;;;;;;;;5073936;28;20685;-68
2023/08/26 09:19:05;;;;;;;3.20;1.77;;;;;;;;;;5081277;28;20032;-70
2023/08/26 09:21:31;;;;;;;4.30;2.28;;;;;;;;;;5059205;28;20071;-66
2023/08/26 09:23:57;;;;;;;6.70;2.10;;;;;;;;;;5074028;28;20351;-66
2023/08/26 09:26:27;;;;;;;5.97;1.83;;;;;;;;;;5076640;28;20043;-66
2023/08/26 09:28:53;;;;;;;4.07;2.08;;;;;;;;;;5079586;28;20032;-66
2023/08/26 09:31:20;;;;;;;2.13;1.75;;;;;;;;;;5080097;28;20032;-66
2023/08/26 09:33:50;;;;;;;3.15;2.20;;;;;;;;;;5084170;28;20028;-66
2023/08/26 09:36:16;;;;;;;3.55;2.33;;;;;;;;;;5078620;28;20044;-66
2023/08/26 09:38:44;;;;;;;3.47;1.90;;;;;;;;;;5084567;28;20067;-66
2023/08/26 09:41:11;;;;;;;4.63;2.10;;;;;;;;;;5076118;28;20043;-65
2023/08/26 09:43:41;;;;;;;6.03;2.22;;;;;;;;;;5056188;28;20094;-65
2023/08/26 09:46:07;;;;;;;3.35;1.90;;;;;;;;;;5087348;28;20400;-65
2023/08/26 09:48:34;;;;;;;5.53;2.72;;;;;;;;;;5083862;28;20028;-66
2023/08/26 09:51:00;;;;;;;4.00;2.00;;;;;;;;;;5092935;28;20103;-66
2023/08/26 09:53:33;;;;;;;3.75;2.00;;;;;;;;;;5085211;28;20419;-66
2023/08/26 09:56:00;;;;;;;2.47;1.80;;;;;;;;;;5084069;28;20447;-65
2023/08/26 09:58:26;;;;;;;3.58;1.90;;;;;;;;;;5081186;28;20035;-65
2023/08/26 10:00:54;;;;;;;2.45;1.83;;;;;;;;;;5080333;28;20035;-66
2023/08/26 10:03:24;;;;;;;5.00;3.00;;;;;;;;;;5080022;28;20032;-66
2023/08/26 10:05:55;;;;;;;5.55;2.15;;;;;;;;;;5082982;28;20380;-66
2023/08/26 10:08:22;;;;;;;3.15;2.35;;;;;;;;;;5085267;28;20028;-66
2023/08/26 10:10:54;;;;;;;3.50;2.30;;;;;;;;;;5083813;28;20074;-66
2023/08/26 10:13:22;;;;;;;3.97;2.60;;;;;;;;;;5079104;28;20093;-66
2023/08/26 10:15:52;;;;;;;3.67;1.98;;;;;;;;;;5082255;28;20176;-65
2023/08/26 10:18:23;;;;;;;5.60;2.00;;;;;;;;;;5086350;28;20042;-65
2023/08/26 10:20:50;;;;;;;4.03;2.80;;;;;;;;;;5083850;28;20540;-65
2023/08/26 10:23:16;;;;;;;7.85;3.15;;;;;;;;;;5086543;28;20398;-66
2023/08/26 10:25:42;;;;;;;5.53;2.30;;;;;;;;;;5088963;28;20032;-66
2023/08/26 10:28:08;;;;;;;3.63;1.80;;;;;;;;;;5083793;28;20047;-65
2023/08/26 10:30:34;;;;;;;3.28;2.10;;;;;;;;;;5090075;28;20055;-66
2023/08/26 10:33:01;;;;;;;6.47;2.30;;;;;;;;;;5085201;28;20059;-66
2023/08/26 10:35:28;;;;;;;4.63;2.00;;;;;;;;;;5090608;28;20507;-66
2023/08/26 10:38:14;;;;;;;5.30;1.90;;;;;;;;;;5080651;28;20039;-65
2023/08/26 10:40:40;;;;;;;4.88;2.00;;;;;;;;;;5077460;28;20110;-66
2023/08/26 10:43:08;;;;;;;3.38;2.15;;;;;;;;;;5077465;28;20383;-66
2023/08/26 10:45:34;;;;;;;4.80;2.00;;;;;;;;;;5079856;28;20020;-66
2023/08/26 10:48:00;;;;;;;5.25;2.47;;;;;;;;;;5079013;28;20043;-65
2023/08/26 10:50:28;;;;;;;4.07;1.88;;;;;;;;;;5084474;28;20020;-66
2023/08/26 10:52:58;;;;;;;6.75;1.90;;;;;;;;;;5080623;28;20131;-66
2023/08/26 10:55:26;;;;;;;2.97;2.00;;;;;;;;;;5082769;28;20034;-65
2023/08/26 10:58:17;;;;;;;2.83;2.05;;;;;;;;;;5087386;28;20035;-66
2023/08/26 11:00:43;;;;;;;2.70;1.90;;;;;;;;;;5073820;28;20072;-66
2023/08/26 11:03:11;;;;;;;8.13;1.95;;;;;;;;;;5073788;28;20028;-66
2023/08/26 11:05:39;;;;;;;2.08;1.65;;;;;;;;;;5075705;28;20387;-67
2023/08/26 11:08:05;;;;;;;3.25;1.85;;;;;;;;;;5079550;28;20067;-67
2023/08/26 11:10:33;;;;;;;3.88;1.83;;;;;;;;;;5084317;28;20198;-67
2023/08/26 11:13:00;;;;;;;3.28;1.75;;;;;;;;;;5078396;28;20038;-66
2023/08/26 11:15:31;;;;;;;2.17;1.48;;;;;;;;;;5077681;28;20032;-67
2023/08/26 11:17:57;;;;;;;2.08;1.52;;;;;;;;;;5083568;28;20034;-67
2023/08/26 11:20:24;;;;;;;2.72;2.10;;;;;;;;;;5060091;28;20111;-65
2023/08/26 11:22:50;;;;;;;3.78;2.47;;;;;;;;;;5074284;28;21106;-65
2023/08/26 11:25:17;;;;;;;2.38;1.80;;;;;;;;;;5082282;28;20125;-66
2023/08/26 11:27:43;;;;;;;1.83;1.65;;;;;;;;;;5071491;28;20066;-66
2023/08/26 11:30:10;;;;;;;4.75;1.70;;;;;;;;;;5080848;28;20566;-66
2023/08/26 11:32:37;;;;;;;1.98;1.77;;;;;;;;;;5080201;28;20863;-66
2023/08/26 11:35:05;;;;;;;2.78;1.70;;;;;;;;;;5067396;28;20146;-65
2023/08/26 11:37:34;;;;;;;3.00;1.58;;;;;;;;;;5078561;28;20168;-65
2023/08/26 11:40:02;;;;;;;3.40;2.25;;;;;;;;;;5075474;28;20035;-66
2023/08/26 11:42:29;;;;;;;3.60;1.95;;;;;;;;;;5066625;28;20024;-65
2023/08/26 11:44:55;;;;;;;3.38;1.90;;;;;;;;;;5098953;28;20096;-66
2023/08/26 11:47:22;;;;;;;3.70;1.85;;;;;;;;;;5059254;28;20490;-65
2023/08/26 11:49:48;;;;;;;3.88;1.80;;;;;;;;;;5081696;28;20028;-65
2023/08/26 11:52:14;;;;;;;4.13;1.83;;;;;;;;;;5078828;28;20028;-66
2023/08/26 11:54:41;;;;;;;3.08;1.80;;;;;;;;;;5066980;28;20506;-67
2023/08/26 11:57:08;;;;;;;2.95;1.80;;;;;;;;;;5063557;28;20440;-65
2023/08/26 11:59:43;;;;;;;3.03;2.25;;;;;;;;;;5085081;28;20031;-65
2023/08/26 12:02:36;;;;;;;2.45;1.60;;;;;;;;;;5098161;28;20028;-65
2023/08/26 12:05:02;;;;;;;5.35;1.90;;;;;;;;;;5072048;28;20044;-64
2023/08/26 12:07:29;;;;;;;2.30;2.00;;;;;;;;;;5078536;28;20039;-66
2023/08/26 12:09:59;;;;;;;3.17;1.70;;;;;;;;;;5072161;28;20059;-65
2023/08/26 12:12:26;;;;;;;2.85;1.65;;;;;;;;;;5089707;28;20035;-66
2023/08/26 12:14:52;;;;;;;2.60;1.60;;;;;;;;;;5081876;28;20029;-65
2023/08/26 12:17:18;;;;;;;4.40;1.83;;;;;;;;;;5072263;28;20167;-65
2023/08/26 12:19:45;;;;;;;7.40;2.17;;;;;;;;;;5069777;28;20031;-65
2023/08/26 12:22:11;;;;;;;3.70;1.85;;;;;;;;;;5080967;28;20028;-65
2023/08/26 12:24:38;;;;;;;5.63;1.95;;;;;;;;;;5082156;28;20035;-65
2023/08/26 12:27:11;;;;;;;2.10;1.60;;;;;;;;;;5083602;28;20391;-65
2023/08/26 12:29:38;;;;;;;1.85;1.63;;;;;;;;;;5077245;28;20021;-66
2023/08/26 12:32:04;;;;;;;3.13;1.60;;;;;;;;;;5080665;28;20109;-66
2023/08/26 12:34:31;;;;;;;1.70;1.60;;;;;;;;;;5083230;28;20032;-66
2023/08/26 12:36:58;;;;;;;1.70;1.60;;;;;;;;;;5076073;28;20059;-67
2023/08/26 12:39:27;;;;;;;2.00;1.73;;;;;;;;;;5078496;28;20035;-67
2023/08/26 12:41:54;;;;;;;3.00;1.67;;;;;;;;;;5057613;28;20035;-67
2023/08/26 12:44:22;;;;;;;2.13;1.65;;;;;;;;;;5056926;28;20031;-66
2023/08/26 12:46:48;;;;;;;2.67;1.90;;;;;;;;;;5070951;28;20020;-67
2023/08/26 12:49:15;;;;;;;2.20;1.60;;;;;;;;;;5078920;28;20055;-67
2023/08/26 12:51:41;;;;;;;2.47;1.60;;;;;;;;;;5080950;28;20035;-67
2023/08/26 12:54:07;;;;;;;3.92;1.88;;;;;;;;;;5067748;28;20520;-68
2023/08/26 12:56:34;;;;;;;2.78;2.08;;;;;;;;;;5064803;28;20492;-68
2023/08/26 12:59:00;;;;;;;3.03;1.73;;;;;;;;;;5081726;28;20028;-68
2023/08/26 13:01:27;;;;;;;1.50;1.40;;;;;;;;;;5082415;28;20396;-67
2023/08/26 13:03:53;;;;;;;4.57;2.63;;;;;;;;;;5081286;28;20032;-67
2023/08/26 13:06:19;;;;;;;2.17;1.55;;;;;;;;;;5086536;28;20031;-67
2023/08/26 13:08:46;;;;;;;2.15;1.75;;;;;;;;;;5079665;28;20020;-67
2023/08/26 13:11:12;;;;;;;3.22;1.63;;;;;;;;;;5087128;28;20050;-67
2023/08/26 13:13:38;;;;;;;1.77;1.30;;;;;;;;;;5082905;28;20067;-67
2023/08/26 13:16:05;;;;;;;1.83;1.60;;;;;;;;;;5078732;28;20442;-67
2023/08/26 13:18:31;;;;;;;2.20;1.50;;;;;;;;;;5062304;28;20032;-67
2023/08/26 13:20:57;;;;;;;2.45;1.50;;;;;;;;;;5082494;28;20024;-67
2023/08/26 13:23:24;;;;;;;2.33;1.55;;;;;;;;;;5063503;28;20744;-68
2023/08/26 13:25:50;;;;;;;2.53;1.60;;;;;;;;;;5080662;28;20058;-68
2023/08/26 13:28:17;;;;;;;3.22;1.40;;;;;;;;;;5083862;28;20456;-68
2023/08/26 13:30:43;;;;;;;3.65;1.80;;;;;;;;;;5078805;28;20029;-67
2023/08/26 13:33:10;;;;;;;2.40;1.50;;;;;;;;;;5078712;28;20519;-68
2023/08/26 13:35:36;;;;;;;1.67;1.38;;;;;;;;;;5083245;28;20044;-68
2023/08/26 13:38:02;;;;;;;3.85;2.00;;;;;;;;;;5080312;28;20692;-68
2023/08/26 13:40:29;;;;;;;1.60;1.50;;;;;;;;;;5085390;28;20554;-68
2023/08/26 13:42:55;;;;;;;1.85;1.73;;;;;;;;;;5081511;28;20055;-67
2023/08/26 13:45:21;;;;;;;2.17;1.45;;;;;;;;;;5081545;28;20043;-68
2023/08/26 13:47:48;;;;;;;2.58;1.83;;;;;;;;;;5063981;28;20042;-67
2023/08/26 13:50:14;;;;;;;1.70;1.60;;;;;;;;;;5080585;28;20051;-68
2023/08/26 13:52:41;;;;;;;1.92;1.60;;;;;;;;;;5080731;28;20032;-68
2023/08/26 13:55:07;;;;;;;3.80;1.60;;;;;;;;;;5082058;28;20140;-68
2023/08/26 13:57:35;;;;;;;3.55;1.70;;;;;;;;;;5085607;28;20031;-69
2023/08/26 14:00:01;;;;;;;2.17;1.63;;;;;;;;;;5067397;28;20450;-68
2023/08/26 14:02:28;;;;;;;1.55;1.45;;;;;;;;;;5084570;28;20081;-68
2023/08/26 14:04:54;;;;;;;4.22;1.92;;;;;;;;;;5081612;28;20077;-69
2023/08/26 14:07:21;;;;;;;1.25;1.25;;;;;;;;;;5082791;28;20399;-69
2023/08/26 14:09:47;;;;;;;3.80;1.52;;;;;;;;;;5066481;28;20024;-69
2023/08/26 14:12:13;;;;;;;2.70;1.50;;;;;;;;;;5082402;28;20454;-68
2023/08/26 14:14:40;;;;;;;2.15;1.40;;;;;;;;;;5080057;28;20031;-69
2023/08/26 14:17:06;;;;;;;4.60;1.90;;;;;;;;;;5074303;28;20483;-68
2023/08/26 14:19:35;;;;;;;1.60;1.50;;;;;;;;;;5077752;28;20130;-69
2023/08/26 14:22:03;;;;;;;2.00;1.70;;;;;;;;;;5065706;28;20035;-69
2023/08/26 14:24:30;;;;;;;4.60;1.92;;;;;;;;;;5080975;28;20023;-69
2023/08/26 14:26:56;;;;;;;2.53;1.60;;;;;;;;;;5080852;28;20403;-69
2023/08/26 14:29:22;;;;;;;4.32;1.88;;;;;;;;;;5081219;28;20492;-69
2023/08/26 14:31:48;;;;;;;2.05;1.65;;;;;;;;;;5078161;28;20551;-69
2023/08/26 14:34:15;;;;;;;1.60;1.42;;;;;;;;;;5076157;28;21162;-69
2023/08/26 14:36:41;;;;;;;2.38;1.42;;;;;;;;;;5064333;28;20048;-70
2023/08/26 14:39:09;;;;;;;1.80;1.60;;;;;;;;;;5063198;28;20035;-70
2023/08/26 14:41:35;;;;;;;2.45;1.90;;;;;;;;;;5063281;28;20472;-69